createdAt,value
2022-10-20T00:05:33.442Z,2.40
2022-10-20T00:12:35.636Z,2.65
2022-10-20T00:19:37.461Z,2.53
2022-10-20T00:26:39.011Z,2.67
2022-10-20T00:33:40.587Z,2.63
2022-10-20T00:40:42.160Z,2.55
2022-10-20T00:47:48.831Z,2.75
2022-10-20T00:54:50.402Z,2.70
2022-10-20T01:01:52.052Z,2.50
2022-10-20T01:08:54.068Z,2.58
2022-10-20T01:16:14.516Z,2.72
2022-10-20T01:23:45.204Z,2.42
2022-10-20T01:30:48.191Z,2.83
2022-10-20T01:38:36.850Z,3.00
2022-10-20T01:45:39.597Z,2.90
2022-10-20T01:52:41.132Z,2.67
2022-10-20T01:59:45.318Z,2.45
2022-10-20T02:06:49.851Z,2.85
2022-10-20T02:13:51.731Z,2.20
2022-10-20T02:20:54.751Z,2.53
2022-10-20T02:27:56.440Z,2.42
2022-10-20T02:34:58.038Z,2.42
2022-10-20T02:41:59.597Z,2.30
2022-10-20T02:49:01.154Z,2.75
2022-10-20T02:56:02.806Z,2.65
2022-10-20T03:03:04.378Z,2.47
2022-10-20T03:10:06.452Z,2.60
2022-10-20T03:17:08.341Z,2.67
2022-10-20T03:24:09.892Z,2.50
2022-10-20T03:31:11.529Z,2.83
2022-10-20T03:38:13.096Z,2.60
2022-10-20T03:45:17.778Z,3.03
2022-10-20T03:52:20.282Z,2.90
2022-10-20T03:59:23.524Z,2.60
2022-10-20T04:06:27.156Z,2.92
2022-10-20T04:13:28.707Z,2.67
2022-10-20T04:20:30.247Z,3.13
2022-10-20T04:27:31.780Z,2.97
2022-10-20T04:34:33.349Z,3.05
2022-10-20T04:41:35.026Z,3.17
2022-10-20T04:48:37.664Z,3.17
2022-10-20T04:55:39.202Z,2.88
2022-10-20T05:02:40.780Z,3.38
2022-10-20T05:09:42.347Z,3.28
2022-10-20T05:16:43.891Z,3.25
2022-10-20T05:23:45.479Z,3.35
2022-10-20T05:30:47.229Z,3.33
2022-10-20T05:37:48.767Z,2.90
2022-10-20T05:44:50.335Z,2.83
2022-10-20T05:51:51.911Z,3.35
2022-10-20T05:58:53.745Z,3.35
2022-10-20T06:05:59.185Z,3.42
2022-10-20T06:13:00.725Z,3.60
2022-10-20T06:20:02.349Z,4.07
2022-10-20T06:27:04.015Z,3.80
2022-10-20T06:34:12.513Z,3.80
2022-10-20T06:41:15.599Z,4.10
2022-10-20T06:48:17.200Z,4.82
2022-10-20T06:55:18.839Z,4.40
2022-10-20T07:02:21.803Z,3.95
2022-10-20T07:09:23.344Z,4.35
2022-10-20T07:16:25.832Z,4.05
2022-10-20T07:23:28.020Z,4.40
2022-10-20T07:30:29.566Z,4.28
2022-10-20T07:37:31.164Z,3.50
2022-10-20T07:44:32.764Z,4.03
2022-10-20T07:51:34.655Z,3.83
2022-10-20T07:58:36.491Z,3.53
2022-10-20T08:05:38.071Z,3.47
2022-10-20T08:12:39.714Z,3.78
2022-10-20T08:19:45.450Z,4.05
2022-10-20T08:26:47.044Z,4.05
2022-10-20T08:33:52.268Z,3.60
2022-10-20T08:40:54.388Z,4.15
2022-10-20T08:47:57.430Z,4.18
2022-10-20T08:54:58.990Z,3.20
2022-10-20T09:02:00.652Z,3.88
2022-10-20T09:09:02.312Z,3.72
2022-10-20T09:16:08.220Z,3.30
2022-10-20T09:23:39.953Z,3.60
2022-10-20T09:30:41.932Z,3.90
2022-10-20T09:37:44.163Z,3.83
2022-10-20T09:44:52.174Z,3.22
2022-10-20T09:51:54.041Z,3.40
2022-10-20T09:58:56.368Z,3.35
2022-10-20T10:06:19.967Z,3.53
2022-10-20T10:13:25.128Z,3.55
2022-10-20T10:20:49.470Z,3.25
2022-10-20T10:28:06.922Z,3.60
2022-10-20T10:35:19.822Z,3.10
2022-10-20T10:42:33.196Z,2.72
2022-10-20T10:50:28.977Z,2.70
2022-10-20T10:57:51.661Z,3.03
2022-10-20T11:05:20.787Z,2.80
2022-10-20T11:12:37.525Z,2.83
2022-10-20T11:20:01.863Z,2.90
2022-10-20T11:27:14.289Z,2.53
2022-10-20T11:34:21.239Z,2.47
2022-10-20T11:41:24.947Z,2.60
2022-10-20T11:48:30.593Z,2.42
2022-10-20T11:55:44.085Z,2.40
2022-10-20T12:02:58.604Z,2.15
2022-10-20T12:10:28.976Z,2.15
2022-10-20T12:17:34.483Z,2.30
2022-10-20T12:24:54.404Z,2.22
2022-10-20T12:32:33.717Z,2.95
2022-10-20T12:39:35.446Z,2.50
2022-10-20T12:46:40.636Z,2.30
2022-10-20T12:53:42.201Z,2.58
2022-10-20T13:00:46.579Z,2.42
2022-10-20T13:07:48.183Z,2.22
2022-10-20T13:14:55.480Z,2.40
2022-10-20T13:21:57.051Z,2.13
2022-10-20T13:29:00.215Z,2.08
2022-10-20T13:36:32.628Z,2.67
2022-10-20T13:43:36.874Z,2.75
2022-10-20T13:50:43.323Z,3.00
2022-10-20T13:57:55.430Z,2.40
2022-10-20T14:05:06.908Z,2.85
2022-10-20T14:12:11.884Z,3.45
2022-10-20T14:19:13.588Z,2.45
2022-10-20T14:26:19.947Z,3.10
2022-10-20T14:33:21.506Z,2.70
2022-10-20T14:40:25.573Z,2.70
2022-10-20T14:47:39.354Z,2.40
2022-10-20T14:54:41.310Z,2.55
2022-10-20T15:02:13.212Z,2.60
2022-10-20T15:09:26.707Z,2.42
2022-10-20T15:16:54.783Z,2.40
2022-10-20T15:23:56.407Z,2.63
2022-10-20T15:31:01.222Z,2.75
2022-10-20T15:38:02.998Z,3.03
2022-10-20T15:45:20.512Z,3.10
2022-10-20T15:52:22.177Z,3.35
2022-10-20T15:59:24.019Z,3.72
2022-10-20T16:06:25.660Z,3.15
2022-10-20T16:13:27.503Z,3.30
2022-10-20T16:20:29.119Z,3.50
2022-10-20T16:27:31.191Z,3.70
2022-10-20T16:34:32.918Z,3.58
2022-10-20T16:41:34.592Z,3.78
2022-10-20T16:48:37.845Z,3.75
2022-10-20T16:55:39.701Z,4.45
2022-10-20T17:02:43.983Z,3.80
2022-10-20T17:09:45.602Z,3.70
2022-10-20T17:16:47.329Z,3.70
2022-10-20T17:23:48.914Z,3.92
2022-10-20T17:30:52.946Z,3.80
2022-10-20T17:37:54.549Z,3.80
2022-10-20T17:44:56.122Z,3.83
2022-10-20T17:51:57.708Z,4.00
2022-10-20T17:58:59.902Z,4.10
2022-10-20T18:06:11.859Z,6.40
2022-10-20T18:13:13.482Z,3.42
2022-10-20T18:20:15.107Z,4.13
2022-10-20T18:27:16.662Z,3.75
2022-10-20T18:34:20.516Z,4.30
2022-10-20T18:41:30.141Z,3.88
2022-10-20T18:48:31.894Z,3.70
2022-10-20T18:55:33.471Z,4.10
2022-10-20T19:02:35.490Z,3.60
2022-10-20T19:09:37.128Z,4.30
2022-10-20T19:16:39.296Z,3.55
2022-10-20T19:23:45.907Z,3.80
2022-10-20T19:30:47.489Z,4.90
2022-10-20T19:37:49.072Z,3.70
2022-10-20T19:44:50.803Z,3.65
2022-10-20T19:51:52.583Z,4.70
2022-10-20T19:58:54.324Z,4.07
2022-10-20T20:06:03.366Z,3.88
2022-10-20T20:13:05.107Z,4.22
2022-10-20T20:20:07.240Z,3.72
2022-10-20T20:27:09.000Z,5.53
2022-10-20T20:34:10.631Z,4.20
2022-10-20T20:41:14.160Z,4.63
2022-10-20T20:48:15.811Z,3.95
2022-10-20T20:55:17.454Z,4.03
2022-10-20T21:02:19.049Z,4.55
2022-10-20T21:09:20.703Z,3.92
2022-10-20T21:16:25.674Z,4.13
2022-10-20T21:23:27.247Z,3.45
2022-10-20T21:30:28.867Z,4.20
2022-10-20T21:37:30.462Z,3.55
2022-10-20T21:44:32.015Z,4.20
2022-10-20T21:51:35.231Z,3.88
2022-10-20T21:58:37.261Z,3.70
2022-10-20T22:05:38.808Z,3.40
2022-10-20T22:12:40.413Z,3.90
2022-10-20T22:19:41.995Z,4.07
2022-10-20T22:26:43.562Z,3.25
2022-10-20T22:33:45.142Z,4.13
2022-10-20T22:40:46.691Z,4.00
2022-10-20T22:47:48.257Z,4.35
2022-10-20T22:54:49.820Z,4.90
2022-10-20T23:01:51.467Z,4.22
2022-10-20T23:08:54.086Z,3.70
2022-10-20T23:15:55.679Z,5.07
2022-10-20T23:22:57.230Z,4.25
2022-10-20T23:29:58.975Z,3.67
2022-10-20T23:37:00.555Z,5.15
2022-10-20T23:44:02.127Z,4.80
2022-10-20T23:51:04.353Z,4.25
2022-10-20T23:58:05.899Z,3.25
